Fountain City, Wisconsin
Current Conditions -  °F | °C
As of 1:13 AM on Friday 31 Oct 2014 (Local Time) from KONA Reporting Station
Clear Clear  
Wind Chill: 23°   Ceiling: Unl
Heat Index: 34°   Visibility: 10mi
Dew Point: 18°   Wind: 17mph
Humidity: 52%   Direction: 340°NNW
Pressure: 30.29"   Gusts: 23mph
Location:  44.13°N, 91.72°W
Report Text: KONA 310613Z AUTO 34015G20KT 10SM CLR 01/M08 A3029 RMK AO2
Loading
Personal Weather Stations






























Interactive Weather Map
Tropical Storm Tracking
New forecast layout! Learn more

10-Day Weather Forecast

Advertisements
Track Severe Weather on mobile